sensor_id;sensor_type;location;lat;lon;timestamp;P1;durP1;ratioP1;P2;durP2;ratioP2
67995;SDS011;54772;53.544;49.324;2023-07-22T00:02:44;2.08;;;1.40;;
67995;SDS011;54772;53.544;49.324;2023-07-22T00:05:30;2.92;;;1.33;;
67995;SDS011;54772;53.544;49.324;2023-07-22T00:11:04;1.20;;;1.10;;
67995;SDS011;54772;53.544;49.324;2023-07-22T00:13:50;1.83;;;1.45;;
67995;SDS011;54772;53.544;49.324;2023-07-22T00:16:37;1.58;;;1.20;;
67995;SDS011;54772;53.544;49.324;2023-07-22T00:19:24;2.83;;;1.20;;
67995;SDS011;54772;53.544;49.324;2023-07-22T00:24:57;2.17;;;1.40;;
67995;SDS011;54772;53.544;49.324;2023-07-22T00:27:47;2.78;;;1.37;;
67995;SDS011;54772;53.544;49.324;2023-07-22T00:33:20;2.33;;;1.50;;
67995;SDS011;54772;53.544;49.324;2023-07-22T00:36:06;1.62;;;1.20;;
67995;SDS011;54772;53.544;49.324;2023-07-22T00:38:53;1.77;;;1.27;;
67995;SDS011;54772;53.544;49.324;2023-07-22T00:41:40;1.45;;;1.35;;
67995;SDS011;54772;53.544;49.324;2023-07-22T00:44:30;1.87;;;1.40;;
67995;SDS011;54772;53.544;49.324;2023-07-22T00:47:16;4.72;;;1.95;;
67995;SDS011;54772;53.544;49.324;2023-07-22T00:50:05;1.60;;;1.23;;
67995;SDS011;54772;53.544;49.324;2023-07-22T00:52:52;1.90;;;1.45;;
67995;SDS011;54772;53.544;49.324;2023-07-22T00:55:39;2.33;;;1.30;;
67995;SDS011;54772;53.544;49.324;2023-07-22T01:01:12;1.73;;;1.30;;
67995;SDS011;54772;53.544;49.324;2023-07-22T01:07:03;1.75;;;1.50;;
67995;SDS011;54772;53.544;49.324;2023-07-22T01:09:57;1.73;;;1.17;;
67995;SDS011;54772;53.544;49.324;2023-07-22T01:12:45;2.60;;;1.58;;
67995;SDS011;54772;53.544;49.324;2023-07-22T01:15:32;1.90;;;1.45;;
67995;SDS011;54772;53.544;49.324;2023-07-22T01:18:18;2.50;;;1.58;;
67995;SDS011;54772;53.544;49.324;2023-07-22T01:21:06;1.83;;;1.62;;
67995;SDS011;54772;53.544;49.324;2023-07-22T01:23:52;3.72;;;1.87;;
67995;SDS011;54772;53.544;49.324;2023-07-22T01:26:39;2.10;;;1.73;;
67995;SDS011;54772;53.544;49.324;2023-07-22T01:32:12;2.30;;;1.55;;
67995;SDS011;54772;53.544;49.324;2023-07-22T01:34:59;2.37;;;1.90;;
67995;SDS011;54772;53.544;49.324;2023-07-22T01:37:46;3.78;;;1.77;;
67995;SDS011;54772;53.544;49.324;2023-07-22T01:40:33;2.42;;;1.70;;
67995;SDS011;54772;53.544;49.324;2023-07-22T01:43:20;3.70;;;1.87;;
67995;SDS011;54772;53.544;49.324;2023-07-22T01:48:54;2.25;;;1.80;;
67995;SDS011;54772;53.544;49.324;2023-07-22T01:51:41;1.75;;;1.55;;
67995;SDS011;54772;53.544;49.324;2023-07-22T01:54:28;3.30;;;1.90;;
67995;SDS011;54772;53.544;49.324;2023-07-22T01:57:14;3.20;;;2.20;;
67995;SDS011;54772;53.544;49.324;2023-07-22T02:02:57;4.20;;;2.20;;
67995;SDS011;54772;53.544;49.324;2023-07-22T02:05:44;2.67;;;2.10;;
67995;SDS011;54772;53.544;49.324;2023-07-22T02:08:31;3.87;;;2.00;;
67995;SDS011;54772;53.544;49.324;2023-07-22T02:11:18;2.60;;;2.08;;
67995;SDS011;54772;53.544;49.324;2023-07-22T02:16:54;3.12;;;2.20;;
67995;SDS011;54772;53.544;49.324;2023-07-22T02:22:27;3.12;;;2.35;;
67995;SDS011;54772;53.544;49.324;2023-07-22T02:25:13;3.65;;;2.65;;
67995;SDS011;54772;53.544;49.324;2023-07-22T02:28:00;3.35;;;2.60;;
67995;SDS011;54772;53.544;49.324;2023-07-22T02:33:34;2.37;;;2.05;;
67995;SDS011;54772;53.544;49.324;2023-07-22T02:36:21;4.03;;;2.83;;
67995;SDS011;54772;53.544;49.324;2023-07-22T02:39:05;3.05;;;2.20;;
67995;SDS011;54772;53.544;49.324;2023-07-22T02:41:55;2.92;;;2.20;;
67995;SDS011;54772;53.544;49.324;2023-07-22T02:47:29;3.15;;;2.08;;
67995;SDS011;54772;53.544;49.324;2023-07-22T02:50:17;3.22;;;2.33;;
67995;SDS011;54772;53.544;49.324;2023-07-22T02:53:04;3.33;;;2.20;;
67995;SDS011;54772;53.544;49.324;2023-07-22T02:55:51;2.37;;;2.10;;
67995;SDS011;54772;53.544;49.324;2023-07-22T03:01:26;3.47;;;2.10;;
67995;SDS011;54772;53.544;49.324;2023-07-22T03:06:59;3.97;;;2.30;;
67995;SDS011;54772;53.544;49.324;2023-07-22T03:09:47;3.72;;;2.40;;
67995;SDS011;54772;53.544;49.324;2023-07-22T03:12:33;5.00;;;2.40;;
67995;SDS011;54772;53.544;49.324;2023-07-22T03:15:23;3.42;;;2.75;;
67995;SDS011;54772;53.544;49.324;2023-07-22T03:18:13;3.15;;;2.05;;
67995;SDS011;54772;53.544;49.324;2023-07-22T03:21:00;5.10;;;2.47;;
67995;SDS011;54772;53.544;49.324;2023-07-22T03:26:33;3.80;;;2.50;;
67995;SDS011;54772;53.544;49.324;2023-07-22T03:29:20;2.65;;;2.10;;
67995;SDS011;54772;53.544;49.324;2023-07-22T03:32:09;3.20;;;2.17;;
67995;SDS011;54772;53.544;49.324;2023-07-22T03:37:43;4.13;;;2.30;;
67995;SDS011;54772;53.544;49.324;2023-07-22T03:43:16;2.57;;;2.10;;
67995;SDS011;54772;53.544;49.324;2023-07-22T03:46:03;3.37;;;2.10;;
67995;SDS011;54772;53.544;49.324;2023-07-22T03:51:35;2.87;;;2.00;;
67995;SDS011;54772;53.544;49.324;2023-07-22T03:57:08;2.22;;;1.98;;
67995;SDS011;54772;53.544;49.324;2023-07-22T04:02:41;3.40;;;2.25;;
67995;SDS011;54772;53.544;49.324;2023-07-22T04:05:30;2.50;;;2.00;;
67995;SDS011;54772;53.544;49.324;2023-07-22T04:08:17;2.97;;;1.92;;
67995;SDS011;54772;53.544;49.324;2023-07-22T04:11:05;3.20;;;2.00;;
67995;SDS011;54772;53.544;49.324;2023-07-22T04:13:52;3.20;;;2.03;;
67995;SDS011;54772;53.544;49.324;2023-07-22T04:19:25;2.53;;;2.03;;
67995;SDS011;54772;53.544;49.324;2023-07-22T04:22:12;4.57;;;2.50;;
67995;SDS011;54772;53.544;49.324;2023-07-22T04:24:58;3.42;;;2.30;;
67995;SDS011;54772;53.544;49.324;2023-07-22T04:27:46;2.83;;;2.10;;
67995;SDS011;54772;53.544;49.324;2023-07-22T04:30:33;2.47;;;1.77;;
67995;SDS011;54772;53.544;49.324;2023-07-22T04:33:20;3.15;;;2.10;;
67995;SDS011;54772;53.544;49.324;2023-07-22T04:38:54;2.83;;;2.20;;
67995;SDS011;54772;53.544;49.324;2023-07-22T04:41:40;2.53;;;2.10;;
67995;SDS011;54772;53.544;49.324;2023-07-22T04:44:28;4.43;;;2.10;;
67995;SDS011;54772;53.544;49.324;2023-07-22T04:47:15;4.57;;;2.25;;
67995;SDS011;54772;53.544;49.324;2023-07-22T04:52:49;3.70;;;2.20;;
67995;SDS011;54772;53.544;49.324;2023-07-22T04:55:36;3.35;;;2.47;;
67995;SDS011;54772;53.544;49.324;2023-07-22T04:58:23;3.00;;;2.30;;
67995;SDS011;54772;53.544;49.324;2023-07-22T05:01:10;3.28;;;2.53;;
67995;SDS011;54772;53.544;49.324;2023-07-22T05:03:57;3.17;;;2.37;;
67995;SDS011;54772;53.544;49.324;2023-07-22T05:06:43;3.37;;;2.33;;
67995;SDS011;54772;53.544;49.324;2023-07-22T05:09:30;5.22;;;2.55;;
67995;SDS011;54772;53.544;49.324;2023-07-22T05:12:17;3.97;;;2.67;;
67995;SDS011;54772;53.544;49.324;2023-07-22T05:15:04;3.95;;;2.50;;
67995;SDS011;54772;53.544;49.324;2023-07-22T05:17:51;3.03;;;2.50;;
67995;SDS011;54772;53.544;49.324;2023-07-22T05:20:38;3.30;;;2.50;;
67995;SDS011;54772;53.544;49.324;2023-07-22T05:23:25;3.10;;;2.50;;
67995;SDS011;54772;53.544;49.324;2023-07-22T05:28:58;4.95;;;2.70;;
67995;SDS011;54772;53.544;49.324;2023-07-22T05:31:45;3.75;;;2.80;;
67995;SDS011;54772;53.544;49.324;2023-07-22T05:34:32;4.22;;;2.83;;
67995;SDS011;54772;53.544;49.324;2023-07-22T05:37:18;5.05;;;3.20;;
67995;SDS011;54772;53.544;49.324;2023-07-22T05:40:05;5.37;;;3.37;;
67995;SDS011;54772;53.544;49.324;2023-07-22T05:42:52;3.53;;;2.70;;
67995;SDS011;54772;53.544;49.324;2023-07-22T05:45:39;3.97;;;2.87;;
67995;SDS011;54772;53.544;49.324;2023-07-22T05:48:26;3.55;;;2.47;;
67995;SDS011;54772;53.544;49.324;2023-07-22T05:53:59;3.30;;;2.47;;
67995;SDS011;54772;53.544;49.324;2023-07-22T05:56:46;4.32;;;2.95;;
67995;SDS011;54772;53.544;49.324;2023-07-22T05:59:33;4.07;;;2.87;;
67995;SDS011;54772;53.544;49.324;2023-07-22T06:02:21;3.22;;;2.60;;
67995;SDS011;54772;53.544;49.324;2023-07-22T06:05:07;4.75;;;3.12;;
67995;SDS011;54772;53.544;49.324;2023-07-22T06:07:54;5.22;;;2.58;;
67995;SDS011;54772;53.544;49.324;2023-07-22T06:10:42;4.53;;;3.17;;
67995;SDS011;54772;53.544;49.324;2023-07-22T06:13:29;2.80;;;2.30;;
67995;SDS011;54772;53.544;49.324;2023-07-22T06:16:16;3.75;;;2.40;;
67995;SDS011;54772;53.544;49.324;2023-07-22T06:19:03;3.37;;;2.75;;
67995;SDS011;54772;53.544;49.324;2023-07-22T06:21:50;3.58;;;2.90;;
67995;SDS011;54772;53.544;49.324;2023-07-22T06:24:36;3.47;;;2.90;;
67995;SDS011;54772;53.544;49.324;2023-07-22T06:27:23;6.00;;;3.15;;
67995;SDS011;54772;53.544;49.324;2023-07-22T06:30:10;4.43;;;2.95;;
67995;SDS011;54772;53.544;49.324;2023-07-22T06:33:01;5.37;;;2.83;;
67995;SDS011;54772;53.544;49.324;2023-07-22T06:35:47;4.30;;;2.47;;
67995;SDS011;54772;53.544;49.324;2023-07-22T06:41:21;4.03;;;2.90;;
67995;SDS011;54772;53.544;49.324;2023-07-22T06:44:11;3.87;;;2.97;;
67995;SDS011;54772;53.544;49.324;2023-07-22T06:46:57;3.40;;;2.90;;
67995;SDS011;54772;53.544;49.324;2023-07-22T06:52:31;3.47;;;2.80;;
67995;SDS011;54772;53.544;49.324;2023-07-22T06:55:18;3.47;;;2.80;;
67995;SDS011;54772;53.544;49.324;2023-07-22T06:58:05;4.28;;;2.75;;
67995;SDS011;54772;53.544;49.324;2023-07-22T07:00:55;3.60;;;2.60;;
67995;SDS011;54772;53.544;49.324;2023-07-22T07:03:41;3.10;;;2.35;;
67995;SDS011;54772;53.544;49.324;2023-07-22T07:09:16;6.30;;;3.10;;
67995;SDS011;54772;53.544;49.324;2023-07-22T07:12:03;3.60;;;2.70;;
67995;SDS011;54772;53.544;49.324;2023-07-22T07:14:50;3.72;;;2.33;;
67995;SDS011;54772;53.544;49.324;2023-07-22T07:17:38;2.92;;;2.40;;
67995;SDS011;54772;53.544;49.324;2023-07-22T07:20:25;4.47;;;2.47;;
67995;SDS011;54772;53.544;49.324;2023-07-22T07:23:14;5.07;;;2.83;;
67995;SDS011;54772;53.544;49.324;2023-07-22T07:26:01;4.37;;;2.75;;
67995;SDS011;54772;53.544;49.324;2023-07-22T07:28:48;3.33;;;2.65;;
67995;SDS011;54772;53.544;49.324;2023-07-22T07:31:36;3.15;;;2.60;;
67995;SDS011;54772;53.544;49.324;2023-07-22T07:34:26;2.87;;;2.50;;
67995;SDS011;54772;53.544;49.324;2023-07-22T07:39:59;3.28;;;2.47;;
67995;SDS011;54772;53.544;49.324;2023-07-22T07:42:46;3.05;;;2.30;;
67995;SDS011;54772;53.544;49.324;2023-07-22T07:45:35;5.95;;;2.92;;
67995;SDS011;54772;53.544;49.324;2023-07-22T07:48:24;2.75;;;1.95;;
67995;SDS011;54772;53.544;49.324;2023-07-22T07:51:12;2.78;;;2.30;;
67995;SDS011;54772;53.544;49.324;2023-07-22T07:53:53;2.50;;;2.30;;
67995;SDS011;54772;53.544;49.324;2023-07-22T07:56:41;3.17;;;2.30;;
67995;SDS011;54772;53.544;49.324;2023-07-22T07:59:27;3.67;;;2.80;;
67995;SDS011;54772;53.544;49.324;2023-07-22T08:02:14;2.95;;;2.12;;
67995;SDS011;54772;53.544;49.324;2023-07-22T08:05:01;3.08;;;2.10;;
67995;SDS011;54772;53.544;49.324;2023-07-22T08:07:47;3.17;;;2.00;;
67995;SDS011;54772;53.544;49.324;2023-07-22T08:13:20;2.22;;;2.03;;
67995;SDS011;54772;53.544;49.324;2023-07-22T08:16:07;2.62;;;2.10;;
67995;SDS011;54772;53.544;49.324;2023-07-22T08:18:54;2.53;;;2.00;;
67995;SDS011;54772;53.544;49.324;2023-07-22T08:21:42;2.37;;;2.08;;
67995;SDS011;54772;53.544;49.324;2023-07-22T08:24:29;3.03;;;2.20;;
67995;SDS011;54772;53.544;49.324;2023-07-22T08:27:18;2.90;;;2.30;;
67995;SDS011;54772;53.544;49.324;2023-07-22T08:30:04;2.70;;;2.30;;
67995;SDS011;54772;53.544;49.324;2023-07-22T08:32:52;2.28;;;1.80;;
67995;SDS011;54772;53.544;49.324;2023-07-22T08:35:39;2.65;;;2.08;;
67995;SDS011;54772;53.544;49.324;2023-07-22T08:38:26;2.55;;;2.08;;
67995;SDS011;54772;53.544;49.324;2023-07-22T08:41:16;4.72;;;2.35;;
67995;SDS011;54772;53.544;49.324;2023-07-22T08:44:04;2.03;;;1.77;;
67995;SDS011;54772;53.544;49.324;2023-07-22T08:46:51;1.98;;;1.75;;
67995;SDS011;54772;53.544;49.324;2023-07-22T08:49:43;2.25;;;1.87;;
67995;SDS011;54772;53.544;49.324;2023-07-22T08:52:34;2.25;;;1.87;;
67995;SDS011;54772;53.544;49.324;2023-07-22T08:58:09;2.35;;;1.83;;
67995;SDS011;54772;53.544;49.324;2023-07-22T09:00:56;2.60;;;2.03;;
67995;SDS011;54772;53.544;49.324;2023-07-22T09:06:29;2.47;;;2.03;;
67995;SDS011;54772;53.544;49.324;2023-07-22T09:09:16;3.50;;;2.00;;
67995;SDS011;54772;53.544;49.324;2023-07-22T09:12:03;2.40;;;1.70;;
67995;SDS011;54772;53.544;49.324;2023-07-22T09:14:51;2.37;;;1.90;;
67995;SDS011;54772;53.544;49.324;2023-07-22T09:17:39;2.40;;;1.70;;
67995;SDS011;54772;53.544;49.324;2023-07-22T09:20:26;2.30;;;2.10;;
67995;SDS011;54772;53.544;49.324;2023-07-22T09:23:14;1.95;;;1.80;;
67995;SDS011;54772;53.544;49.324;2023-07-22T09:26:08;2.90;;;1.95;;
67995;SDS011;54772;53.544;49.324;2023-07-22T09:31:51;2.58;;;2.33;;
67995;SDS011;54772;53.544;49.324;2023-07-22T09:34:45;4.10;;;2.30;;
67995;SDS011;54772;53.544;49.324;2023-07-22T09:37:40;3.25;;;2.05;;
67995;SDS011;54772;53.544;49.324;2023-07-22T09:40:27;2.47;;;1.92;;
67995;SDS011;54772;53.544;49.324;2023-07-22T09:43:14;2.70;;;2.20;;
67995;SDS011;54772;53.544;49.324;2023-07-22T09:46:05;4.00;;;2.17;;
67995;SDS011;54772;53.544;49.324;2023-07-22T09:48:55;5.40;;;2.35;;
67995;SDS011;54772;53.544;49.324;2023-07-22T09:51:42;3.37;;;2.10;;
67995;SDS011;54772;53.544;49.324;2023-07-22T09:54:29;4.30;;;2.50;;
67995;SDS011;54772;53.544;49.324;2023-07-22T10:00:03;3.65;;;2.22;;
67995;SDS011;54772;53.544;49.324;2023-07-22T10:02:57;4.37;;;1.95;;
67995;SDS011;54772;53.544;49.324;2023-07-22T10:05:45;2.35;;;2.00;;
67995;SDS011;54772;53.544;49.324;2023-07-22T10:08:32;2.00;;;1.80;;
67995;SDS011;54772;53.544;49.324;2023-07-22T10:11:25;3.67;;;1.77;;
67995;SDS011;54772;53.544;49.324;2023-07-22T10:14:13;2.47;;;2.00;;
67995;SDS011;54772;53.544;49.324;2023-07-22T10:17:00;2.22;;;1.73;;
67995;SDS011;54772;53.544;49.324;2023-07-22T10:19:46;3.28;;;1.95;;
67995;SDS011;54772;53.544;49.324;2023-07-22T10:22:34;2.70;;;2.00;;
67995;SDS011;54772;53.544;49.324;2023-07-22T10:25:22;2.45;;;2.03;;
67995;SDS011;54772;53.544;49.324;2023-07-22T10:28:09;2.97;;;1.90;;
67995;SDS011;54772;53.544;49.324;2023-07-22T10:30:56;2.25;;;2.00;;
67995;SDS011;54772;53.544;49.324;2023-07-22T10:33:43;3.60;;;1.95;;
67995;SDS011;54772;53.544;49.324;2023-07-22T10:36:31;2.75;;;2.05;;
67995;SDS011;54772;53.544;49.324;2023-07-22T10:39:26;2.85;;;2.22;;
67995;SDS011;54772;53.544;49.324;2023-07-22T10:42:23;2.90;;;2.03;;
67995;SDS011;54772;53.544;49.324;2023-07-22T10:45:33;2.20;;;1.85;;
67995;SDS011;54772;53.544;49.324;2023-07-22T10:48:28;2.45;;;1.90;;
67995;SDS011;54772;53.544;49.324;2023-07-22T10:51:21;2.72;;;2.20;;
67995;SDS011;54772;53.544;49.324;2023-07-22T10:54:12;2.75;;;1.73;;
67995;SDS011;54772;53.544;49.324;2023-07-22T11:00:01;4.18;;;1.95;;
67995;SDS011;54772;53.544;49.324;2023-07-22T11:05:54;3.00;;;2.15;;
67995;SDS011;54772;53.544;49.324;2023-07-22T11:08:41;3.15;;;2.10;;
67995;SDS011;54772;53.544;49.324;2023-07-22T11:11:38;2.75;;;2.05;;
67995;SDS011;54772;53.544;49.324;2023-07-22T11:14:26;2.25;;;1.87;;
67995;SDS011;54772;53.544;49.324;2023-07-22T11:17:14;3.03;;;2.03;;
67995;SDS011;54772;53.544;49.324;2023-07-22T11:20:02;3.65;;;2.25;;
67995;SDS011;54772;53.544;49.324;2023-07-22T11:22:50;2.95;;;2.10;;
67995;SDS011;54772;53.544;49.324;2023-07-22T11:25:37;2.30;;;2.08;;
67995;SDS011;54772;53.544;49.324;2023-07-22T11:28:23;3.05;;;2.17;;
67995;SDS011;54772;53.544;49.324;2023-07-22T11:31:10;2.22;;;1.70;;
67995;SDS011;54772;53.544;49.324;2023-07-22T11:36:44;3.37;;;2.42;;
67995;SDS011;54772;53.544;49.324;2023-07-22T11:39:31;3.72;;;2.05;;
67995;SDS011;54772;53.544;49.324;2023-07-22T11:42:18;5.68;;;2.50;;
67995;SDS011;54772;53.544;49.324;2023-07-22T11:47:51;4.25;;;1.95;;
67995;SDS011;54772;53.544;49.324;2023-07-22T11:50:38;4.65;;;2.03;;
67995;SDS011;54772;53.544;49.324;2023-07-22T11:53:28;2.92;;;1.87;;
67995;SDS011;54772;53.544;49.324;2023-07-22T11:56:18;2.95;;;1.90;;
67995;SDS011;54772;53.544;49.324;2023-07-22T11:59:08;3.78;;;1.98;;
67995;SDS011;54772;53.544;49.324;2023-07-22T12:01:56;3.40;;;2.00;;
67995;SDS011;54772;53.544;49.324;2023-07-22T12:04:43;4.85;;;1.83;;
67995;SDS011;54772;53.544;49.324;2023-07-22T12:07:38;2.10;;;1.90;;
67995;SDS011;54772;53.544;49.324;2023-07-22T12:10:26;2.08;;;1.85;;
67995;SDS011;54772;53.544;49.324;2023-07-22T12:13:13;3.28;;;2.03;;
67995;SDS011;54772;53.544;49.324;2023-07-22T12:18:46;3.60;;;2.20;;
67995;SDS011;54772;53.544;49.324;2023-07-22T12:21:34;2.92;;;1.90;;
67995;SDS011;54772;53.544;49.324;2023-07-22T12:24:20;2.22;;;1.92;;
67995;SDS011;54772;53.544;49.324;2023-07-22T12:27:07;1.65;;;1.52;;
67995;SDS011;54772;53.544;49.324;2023-07-22T12:29:53;4.00;;;1.85;;
67995;SDS011;54772;53.544;49.324;2023-07-22T12:32:40;2.50;;;1.80;;
67995;SDS011;54772;53.544;49.324;2023-07-22T12:35:27;2.70;;;2.20;;
67995;SDS011;54772;53.544;49.324;2023-07-22T12:41:00;1.60;;;1.50;;
67995;SDS011;54772;53.544;49.324;2023-07-22T12:43:46;2.55;;;1.90;;
67995;SDS011;54772;53.544;49.324;2023-07-22T12:46:34;2.75;;;2.10;;
67995;SDS011;54772;53.544;49.324;2023-07-22T12:49:21;2.60;;;2.00;;
67995;SDS011;54772;53.544;49.324;2023-07-22T12:52:08;2.25;;;1.73;;
67995;SDS011;54772;53.544;49.324;2023-07-22T12:54:54;2.05;;;1.62;;
67995;SDS011;54772;53.544;49.324;2023-07-22T12:57:41;4.18;;;2.10;;
67995;SDS011;54772;53.544;49.324;2023-07-22T13:00:28;2.30;;;1.67;;
67995;SDS011;54772;53.544;49.324;2023-07-22T13:03:14;3.17;;;2.03;;
67995;SDS011;54772;53.544;49.324;2023-07-22T13:06:01;3.58;;;2.17;;
67995;SDS011;54772;53.544;49.324;2023-07-22T13:08:48;3.35;;;1.80;;
67995;SDS011;54772;53.544;49.324;2023-07-22T13:14:20;1.58;;;1.45;;
67995;SDS011;54772;53.544;49.324;2023-07-22T13:17:07;2.70;;;2.00;;
67995;SDS011;54772;53.544;49.324;2023-07-22T13:19:53;2.00;;;1.70;;
67995;SDS011;54772;53.544;49.324;2023-07-22T13:22:40;2.85;;;1.80;;
67995;SDS011;54772;53.544;49.324;2023-07-22T13:25:27;2.00;;;1.50;;
67995;SDS011;54772;53.544;49.324;2023-07-22T13:28:15;3.22;;;1.85;;
67995;SDS011;54772;53.544;49.324;2023-07-22T13:31:01;2.25;;;1.73;;
67995;SDS011;54772;53.544;49.324;2023-07-22T13:33:48;2.85;;;2.03;;
67995;SDS011;54772;53.544;49.324;2023-07-22T13:36:34;3.42;;;1.70;;
67995;SDS011;54772;53.544;49.324;2023-07-22T13:39:21;2.20;;;1.70;;
67995;SDS011;54772;53.544;49.324;2023-07-22T13:42:08;3.65;;;1.87;;
67995;SDS011;54772;53.544;49.324;2023-07-22T13:44:55;1.95;;;1.60;;
67995;SDS011;54772;53.544;49.324;2023-07-22T13:47:42;2.65;;;1.62;;
67995;SDS011;54772;53.544;49.324;2023-07-22T13:50:28;3.37;;;2.35;;
67995;SDS011;54772;53.544;49.324;2023-07-22T13:53:15;2.50;;;1.80;;
67995;SDS011;54772;53.544;49.324;2023-07-22T13:56:02;2.45;;;2.08;;
67995;SDS011;54772;53.544;49.324;2023-07-22T13:58:49;2.42;;;1.80;;
67995;SDS011;54772;53.544;49.324;2023-07-22T14:04:22;3.40;;;1.85;;
67995;SDS011;54772;53.544;49.324;2023-07-22T14:07:08;2.62;;;1.80;;
67995;SDS011;54772;53.544;49.324;2023-07-22T14:09:55;2.55;;;1.70;;
67995;SDS011;54772;53.544;49.324;2023-07-22T14:12:41;2.28;;;1.80;;
67995;SDS011;54772;53.544;49.324;2023-07-22T14:15:28;1.95;;;1.75;;
67995;SDS011;54772;53.544;49.324;2023-07-22T14:18:15;2.33;;;1.60;;
67995;SDS011;54772;53.544;49.324;2023-07-22T14:21:02;4.62;;;1.95;;
67995;SDS011;54772;53.544;49.324;2023-07-22T14:23:49;3.33;;;1.85;;
67995;SDS011;54772;53.544;49.324;2023-07-22T14:29:22;2.08;;;1.75;;
67995;SDS011;54772;53.544;49.324;2023-07-22T14:32:10;2.25;;;1.80;;
67995;SDS011;54772;53.544;49.324;2023-07-22T14:37:43;3.45;;;1.80;;
67995;SDS011;54772;53.544;49.324;2023-07-22T14:40:31;1.92;;;1.70;;
67995;SDS011;54772;53.544;49.324;2023-07-22T14:43:18;1.70;;;1.60;;
67995;SDS011;54772;53.544;49.324;2023-07-22T14:46:04;2.40;;;1.83;;
67995;SDS011;54772;53.544;49.324;2023-07-22T14:51:37;3.33;;;2.12;;
67995;SDS011;54772;53.544;49.324;2023-07-22T14:54:24;1.98;;;1.70;;
67995;SDS011;54772;53.544;49.324;2023-07-22T14:57:11;2.65;;;1.83;;
67995;SDS011;54772;53.544;49.324;2023-07-22T14:59:57;2.58;;;1.73;;
67995;SDS011;54772;53.544;49.324;2023-07-22T15:05:31;2.97;;;1.90;;
67995;SDS011;54772;53.544;49.324;2023-07-22T15:11:04;2.00;;;1.58;;
67995;SDS011;54772;53.544;49.324;2023-07-22T15:13:50;2.65;;;1.80;;
67995;SDS011;54772;53.544;49.324;2023-07-22T15:16:37;4.90;;;1.87;;
67995;SDS011;54772;53.544;49.324;2023-07-22T15:19:25;3.05;;;2.22;;
67995;SDS011;54772;53.544;49.324;2023-07-22T15:22:12;3.60;;;1.90;;
67995;SDS011;54772;53.544;49.324;2023-07-22T15:24:58;3.10;;;1.87;;
67995;SDS011;54772;53.544;49.324;2023-07-22T15:27:45;2.45;;;1.83;;
67995;SDS011;54772;53.544;49.324;2023-07-22T15:30:32;2.35;;;1.95;;
67995;SDS011;54772;53.544;49.324;2023-07-22T15:33:18;2.72;;;1.83;;
67995;SDS011;54772;53.544;49.324;2023-07-22T15:36:06;3.50;;;2.08;;
67995;SDS011;54772;53.544;49.324;2023-07-22T15:38:53;3.35;;;1.77;;
67995;SDS011;54772;53.544;49.324;2023-07-22T15:41:40;4.30;;;2.08;;
67995;SDS011;54772;53.544;49.324;2023-07-22T15:44:27;8.45;;;2.75;;
67995;SDS011;54772;53.544;49.324;2023-07-22T15:50:00;7.57;;;3.40;;
67995;SDS011;54772;53.544;49.324;2023-07-22T15:52:47;6.62;;;4.00;;
67995;SDS011;54772;53.544;49.324;2023-07-22T15:58:20;5.60;;;3.85;;
67995;SDS011;54772;53.544;49.324;2023-07-22T16:01:07;6.97;;;3.60;;
67995;SDS011;54772;53.544;49.324;2023-07-22T16:03:54;7.12;;;4.07;;
67995;SDS011;54772;53.544;49.324;2023-07-22T16:06:41;7.12;;;3.90;;
67995;SDS011;54772;53.544;49.324;2023-07-22T16:12:13;6.65;;;3.72;;
67995;SDS011;54772;53.544;49.324;2023-07-22T16:15:00;9.05;;;4.70;;
67995;SDS011;54772;53.544;49.324;2023-07-22T16:17:50;8.38;;;4.15;;
67995;SDS011;54772;53.544;49.324;2023-07-22T16:20:39;8.57;;;4.53;;
67995;SDS011;54772;53.544;49.324;2023-07-22T16:26:12;8.73;;;4.25;;
67995;SDS011;54772;53.544;49.324;2023-07-22T16:31:47;6.50;;;4.25;;
67995;SDS011;54772;53.544;49.324;2023-07-22T16:34:34;7.57;;;4.00;;
67995;SDS011;54772;53.544;49.324;2023-07-22T16:37:21;7.55;;;5.03;;
67995;SDS011;54772;53.544;49.324;2023-07-22T16:42:57;10.52;;;5.68;;
67995;SDS011;54772;53.544;49.324;2023-07-22T16:45:43;11.70;;;5.97;;
67995;SDS011;54772;53.544;49.324;2023-07-22T16:51:28;10.60;;;5.47;;
67995;SDS011;54772;53.544;49.324;2023-07-22T16:54:15;11.70;;;5.30;;
67995;SDS011;54772;53.544;49.324;2023-07-22T16:57:02;13.00;;;5.30;;
67995;SDS011;54772;53.544;49.324;2023-07-22T16:59:49;7.95;;;5.60;;
67995;SDS011;54772;53.544;49.324;2023-07-22T17:02:36;9.75;;;5.45;;
67995;SDS011;54772;53.544;49.324;2023-07-22T17:05:23;9.95;;;6.43;;
67995;SDS011;54772;53.544;49.324;2023-07-22T17:08:10;9.63;;;5.45;;
67995;SDS011;54772;53.544;49.324;2023-07-22T17:10:56;7.90;;;4.90;;
67995;SDS011;54772;53.544;49.324;2023-07-22T17:13:42;8.10;;;4.43;;
67995;SDS011;54772;53.544;49.324;2023-07-22T17:16:30;6.50;;;4.03;;
67995;SDS011;54772;53.544;49.324;2023-07-22T17:19:17;5.53;;;4.18;;
67995;SDS011;54772;53.544;49.324;2023-07-22T17:24:50;7.65;;;4.30;;
67995;SDS011;54772;53.544;49.324;2023-07-22T17:27:37;9.35;;;4.60;;
67995;SDS011;54772;53.544;49.324;2023-07-22T17:30:23;5.47;;;3.85;;
67995;SDS011;54772;53.544;49.324;2023-07-22T17:33:10;6.65;;;4.00;;
67995;SDS011;54772;53.544;49.324;2023-07-22T17:35:56;6.60;;;4.03;;
67995;SDS011;54772;53.544;49.324;2023-07-22T17:38:43;7.90;;;4.40;;
67995;SDS011;54772;53.544;49.324;2023-07-22T17:44:16;6.97;;;4.15;;
67995;SDS011;54772;53.544;49.324;2023-07-22T17:47:04;9.02;;;5.05;;
67995;SDS011;54772;53.544;49.324;2023-07-22T17:49:51;9.48;;;4.57;;
67995;SDS011;54772;53.544;49.324;2023-07-22T17:52:37;9.90;;;4.40;;
67995;SDS011;54772;53.544;49.324;2023-07-22T17:55:24;5.85;;;3.45;;
67995;SDS011;54772;53.544;49.324;2023-07-22T17:58:11;6.15;;;3.75;;
67995;SDS011;54772;53.544;49.324;2023-07-22T18:00:58;8.02;;;4.10;;
67995;SDS011;54772;53.544;49.324;2023-07-22T18:03:48;6.62;;;3.75;;
67995;SDS011;54772;53.544;49.324;2023-07-22T18:09:21;6.85;;;3.90;;
67995;SDS011;54772;53.544;49.324;2023-07-22T18:12:08;6.78;;;4.10;;
67995;SDS011;54772;53.544;49.324;2023-07-22T18:14:58;7.57;;;4.00;;
67995;SDS011;54772;53.544;49.324;2023-07-22T18:20:33;5.45;;;3.53;;
67995;SDS011;54772;53.544;49.324;2023-07-22T18:23:19;5.45;;;4.03;;
67995;SDS011;54772;53.544;49.324;2023-07-22T18:26:06;6.45;;;3.35;;
67995;SDS011;54772;53.544;49.324;2023-07-22T18:31:39;7.22;;;3.42;;
67995;SDS011;54772;53.544;49.324;2023-07-22T18:34:26;5.18;;;3.00;;
67995;SDS011;54772;53.544;49.324;2023-07-22T18:37:13;6.60;;;2.87;;
67995;SDS011;54772;53.544;49.324;2023-07-22T18:40:00;7.93;;;3.47;;
67995;SDS011;54772;53.544;49.324;2023-07-22T18:42:49;8.07;;;3.85;;
67995;SDS011;54772;53.544;49.324;2023-07-22T18:48:22;6.47;;;3.67;;
67995;SDS011;54772;53.544;49.324;2023-07-22T18:51:10;6.65;;;4.10;;
67995;SDS011;54772;53.544;49.324;2023-07-22T18:53:58;6.90;;;3.92;;
67995;SDS011;54772;53.544;49.324;2023-07-22T18:56:44;6.30;;;3.67;;
67995;SDS011;54772;53.544;49.324;2023-07-22T18:59:31;7.68;;;3.87;;
67995;SDS011;54772;53.544;49.324;2023-07-22T19:05:04;7.12;;;3.78;;
67995;SDS011;54772;53.544;49.324;2023-07-22T19:07:51;8.63;;;4.20;;
67995;SDS011;54772;53.544;49.324;2023-07-22T19:10:44;7.45;;;4.15;;
67995;SDS011;54772;53.544;49.324;2023-07-22T19:13:31;9.60;;;3.90;;
67995;SDS011;54772;53.544;49.324;2023-07-22T19:16:18;6.43;;;4.03;;
67995;SDS011;54772;53.544;49.324;2023-07-22T19:21:51;7.53;;;3.80;;
67995;SDS011;54772;53.544;49.324;2023-07-22T19:24:44;6.72;;;3.87;;
67995;SDS011;54772;53.544;49.324;2023-07-22T19:27:32;8.90;;;3.85;;